Hespeler, Canada
Current Conditions -  °F | °C
As of 1:00 PM on Sunday 25 Jan 2015 (Local Time) from CYKF Reporting Station
Clear Clear  
Wind Chill:   Ceiling: Unl
Heat Index: 16°   Visibility: 9mi
Dew Point:   Wind: 5mph
Humidity: 58%   Direction: 10°N
Pressure: 29.9"   Gusts: NA
Location:  43.43°N, 80.32°W
Report Text: CYKF 251800Z AUTO 01004KT 340V070 9SM CLR M09/M16 A2990 RMK SLP144
Loading
Personal Weather Stations






























Interactive Weather Map New forecast layout! Learn more

10-Day Weather Forecast

Advertisements
Track Severe Weather on mobile